sensor_id;sensor_type;location;lat;lon;timestamp;pressure;altitude;pressure_sealevel;temperature;humidity
42591;BME280;28218;53.342;-6.216;2023-04-07T00:01:47;102064.78;;;9.93;100.00
42591;BME280;28218;53.342;-6.216;2023-04-07T00:04:15;102068.66;;;9.89;100.00
42591;BME280;28218;53.342;-6.216;2023-04-07T00:06:44;102076.41;;;9.90;100.00
42591;BME280;28218;53.342;-6.216;2023-04-07T00:09:12;102082.19;;;9.84;100.00
42591;BME280;28218;53.342;-6.216;2023-04-07T00:11:40;102079.69;;;9.83;100.00
42591;BME280;28218;53.342;-6.216;2023-04-07T00:14:08;102076.59;;;9.78;100.00
42591;BME280;28218;53.342;-6.216;2023-04-07T00:16:36;102074.13;;;9.76;100.00
42591;BME280;28218;53.342;-6.216;2023-04-07T00:19:06;102074.34;;;9.73;100.00
42591;BME280;28218;53.342;-6.216;2023-04-07T00:21:34;102076.31;;;9.71;100.00
42591;BME280;28218;53.342;-6.216;2023-04-07T00:24:03;102081.81;;;9.68;100.00
42591;BME280;28218;53.342;-6.216;2023-04-07T00:26:31;102079.06;;;9.69;100.00
42591;BME280;28218;53.342;-6.216;2023-04-07T00:28:59;102080.16;;;9.67;100.00
42591;BME280;28218;53.342;-6.216;2023-04-07T00:31:27;102074.06;;;9.66;100.00
42591;BME280;28218;53.342;-6.216;2023-04-07T00:33:56;102074.44;;;9.62;100.00
42591;BME280;28218;53.342;-6.216;2023-04-07T00:36:25;102071.81;;;9.62;100.00
42591;BME280;28218;53.342;-6.216;2023-04-07T00:38:54;102069.19;;;9.62;100.00
42591;BME280;28218;53.342;-6.216;2023-04-07T00:41:22;102070.16;;;9.61;100.00
42591;BME280;28218;53.342;-6.216;2023-04-07T00:43:50;102067.63;;;9.59;100.00
42591;BME280;28218;53.342;-6.216;2023-04-07T00:46:21;102070.41;;;9.58;100.00
42591;BME280;28218;53.342;-6.216;2023-04-07T00:48:50;102069.41;;;9.59;100.00
42591;BME280;28218;53.342;-6.216;2023-04-07T00:51:19;102066.78;;;9.59;100.00
42591;BME280;28218;53.342;-6.216;2023-04-07T00:53:49;102064.31;;;9.57;100.00
42591;BME280;28218;53.342;-6.216;2023-04-07T00:56:17;102063.72;;;9.54;100.00
42591;BME280;28218;53.342;-6.216;2023-04-07T00:58:46;102066.47;;;9.52;100.00
42591;BME280;28218;53.342;-6.216;2023-04-07T01:01:17;102071.88;;;9.51;100.00
42591;BME280;28218;53.342;-6.216;2023-04-07T01:03:52;102071.28;;;9.47;100.00
42591;BME280;28218;53.342;-6.216;2023-04-07T01:06:29;102063.25;;;9.48;100.00
42591;BME280;28218;53.342;-6.216;2023-04-07T01:09:02;102064.47;;;9.44;100.00
42591;BME280;28218;53.342;-6.216;2023-04-07T01:11:36;102063.66;;;9.44;100.00
42591;BME280;28218;53.342;-6.216;2023-04-07T01:14:09;102062.13;;;9.41;100.00
42591;BME280;28218;53.342;-6.216;2023-04-07T01:16:41;102062.97;;;9.42;100.00
42591;BME280;28218;53.342;-6.216;2023-04-07T01:19:14;102060.44;;;9.40;100.00
42591;BME280;28218;53.342;-6.216;2023-04-07T01:21:43;102061.69;;;9.36;100.00
42591;BME280;28218;53.342;-6.216;2023-04-07T01:24:39;102056.41;;;9.36;100.00
42591;BME280;28218;53.342;-6.216;2023-04-07T01:27:16;102058.56;;;9.31;100.00
42591;BME280;28218;53.342;-6.216;2023-04-07T01:29:49;102062.53;;;9.26;100.00
42591;BME280;28218;53.342;-6.216;2023-04-07T01:32:19;102056.00;;;9.20;100.00
42591;BME280;28218;53.342;-6.216;2023-04-07T01:34:49;102062.38;;;9.17;100.00
42591;BME280;28218;53.342;-6.216;2023-04-07T01:37:19;102058.19;;;9.15;100.00
42591;BME280;28218;53.342;-6.216;2023-04-07T01:39:48;102054.56;;;9.16;100.00
42591;BME280;28218;53.342;-6.216;2023-04-07T01:42:18;102057.94;;;9.18;100.00
42591;BME280;28218;53.342;-6.216;2023-04-07T01:44:49;102052.78;;;9.16;100.00
42591;BME280;28218;53.342;-6.216;2023-04-07T01:47:18;102054.94;;;9.11;100.00
42591;BME280;28218;53.342;-6.216;2023-04-07T01:49:47;102057.00;;;9.08;100.00
42591;BME280;28218;53.342;-6.216;2023-04-07T01:52:16;102058.94;;;9.06;100.00
42591;BME280;28218;53.342;-6.216;2023-04-07T01:54:45;102054.19;;;9.00;100.00
42591;BME280;28218;53.342;-6.216;2023-04-07T01:57:13;102056.81;;;9.00;100.00
42591;BME280;28218;53.342;-6.216;2023-04-07T01:59:42;102062.06;;;9.00;100.00
42591;BME280;28218;53.342;-6.216;2023-04-07T02:02:11;102062.44;;;8.95;100.00
42591;BME280;28218;53.342;-6.216;2023-04-07T02:04:48;102059.81;;;8.95;100.00
42591;BME280;28218;53.342;-6.216;2023-04-07T02:07:21;102054.66;;;8.93;100.00
42591;BME280;28218;53.342;-6.216;2023-04-07T02:09:53;102050.50;;;8.91;100.00
42591;BME280;28218;53.342;-6.216;2023-04-07T02:12:23;102048.38;;;8.85;100.00
42591;BME280;28218;53.342;-6.216;2023-04-07T02:14:53;102058.75;;;8.86;100.00
42591;BME280;28218;53.342;-6.216;2023-04-07T02:17:24;102053.75;;;8.83;100.00
42591;BME280;28218;53.342;-6.216;2023-04-07T02:19:54;102048.63;;;8.82;100.00
42591;BME280;28218;53.342;-6.216;2023-04-07T02:22:25;102061.44;;;8.75;100.00
42591;BME280;28218;53.342;-6.216;2023-04-07T02:24:53;102054.63;;;8.73;100.00
42591;BME280;28218;53.342;-6.216;2023-04-07T02:27:22;102060.00;;;8.71;100.00
42591;BME280;28218;53.342;-6.216;2023-04-07T02:29:50;102056.28;;;8.74;100.00
42591;BME280;28218;53.342;-6.216;2023-04-07T02:32:18;102056.53;;;8.70;100.00
42591;BME280;28218;53.342;-6.216;2023-04-07T02:34:47;102046.88;;;8.71;100.00
42591;BME280;28218;53.342;-6.216;2023-04-07T02:37:16;102048.66;;;8.70;100.00
42591;BME280;28218;53.342;-6.216;2023-04-07T02:39:44;102053.06;;;8.70;100.00
42591;BME280;28218;53.342;-6.216;2023-04-07T02:42:12;102054.03;;;8.69;100.00
42591;BME280;28218;53.342;-6.216;2023-04-07T02:44:40;102051.66;;;8.66;100.00
42591;BME280;28218;53.342;-6.216;2023-04-07T02:47:08;102052.84;;;8.62;100.00
42591;BME280;28218;53.342;-6.216;2023-04-07T02:49:36;102051.88;;;8.63;100.00
42591;BME280;28218;53.342;-6.216;2023-04-07T02:52:06;102046.63;;;8.63;100.00
42591;BME280;28218;53.342;-6.216;2023-04-07T02:54:34;102045.66;;;8.64;100.00
42591;BME280;28218;53.342;-6.216;2023-04-07T02:57:03;102049.75;;;8.57;100.00
42591;BME280;28218;53.342;-6.216;2023-04-07T02:59:31;102046.41;;;8.55;100.00
42591;BME280;28218;53.342;-6.216;2023-04-07T03:01:59;102040.69;;;8.50;100.00
42591;BME280;28218;53.342;-6.216;2023-04-07T03:04:28;102042.34;;;8.51;100.00
42591;BME280;28218;53.342;-6.216;2023-04-07T03:06:57;102040.91;;;8.47;100.00
42591;BME280;28218;53.342;-6.216;2023-04-07T03:09:27;102050.38;;;8.49;100.00
42591;BME280;28218;53.342;-6.216;2023-04-07T03:11:55;102045.84;;;8.40;100.00
42591;BME280;28218;53.342;-6.216;2023-04-07T03:14:24;102039.88;;;8.38;100.00
42591;BME280;28218;53.342;-6.216;2023-04-07T03:16:52;102037.13;;;8.39;100.00
42591;BME280;28218;53.342;-6.216;2023-04-07T03:19:20;102042.38;;;8.39;100.00
42591;BME280;28218;53.342;-6.216;2023-04-07T03:21:49;102037.13;;;8.39;100.00
42591;BME280;28218;53.342;-6.216;2023-04-07T03:24:17;102039.75;;;8.39;100.00
42591;BME280;28218;53.342;-6.216;2023-04-07T03:26:47;102045.00;;;8.39;100.00
42591;BME280;28218;53.342;-6.216;2023-04-07T03:29:15;102042.59;;;8.36;100.00
42591;BME280;28218;53.342;-6.216;2023-04-07T03:31:43;102044.28;;;8.37;100.00
42591;BME280;28218;53.342;-6.216;2023-04-07T03:34:12;102047.97;;;8.35;100.00
42591;BME280;28218;53.342;-6.216;2023-04-07T03:36:40;102043.78;;;8.32;100.00
42591;BME280;28218;53.342;-6.216;2023-04-07T03:39:08;102046.41;;;8.32;100.00
42591;BME280;28218;53.342;-6.216;2023-04-07T03:41:36;102043.78;;;8.32;100.00
42591;BME280;28218;53.342;-6.216;2023-04-07T03:44:06;102040.22;;;8.33;100.00
42591;BME280;28218;53.342;-6.216;2023-04-07T03:46:34;102041.66;;;8.37;100.00
42591;BME280;28218;53.342;-6.216;2023-04-07T03:49:02;102040.09;;;8.35;100.00
42591;BME280;28218;53.342;-6.216;2023-04-07T03:51:30;102039.13;;;8.36;100.00
42591;BME280;28218;53.342;-6.216;2023-04-07T03:53:59;102040.09;;;8.35;100.00
42591;BME280;28218;53.342;-6.216;2023-04-07T03:56:27;102039.13;;;8.36;100.00
42591;BME280;28218;53.342;-6.216;2023-04-07T03:58:56;102044.28;;;8.37;100.00
42591;BME280;28218;53.342;-6.216;2023-04-07T04:01:25;102044.28;;;8.37;100.00
42591;BME280;28218;53.342;-6.216;2023-04-07T04:03:53;102041.75;;;8.36;100.00
42591;BME280;28218;53.342;-6.216;2023-04-07T04:06:22;102047.97;;;8.35;100.00
42591;BME280;28218;53.342;-6.216;2023-04-07T04:08:50;102041.28;;;8.31;100.00
42591;BME280;28218;53.342;-6.216;2023-04-07T04:11:19;102039.00;;;8.26;100.00
42591;BME280;28218;53.342;-6.216;2023-04-07T04:13:47;102039.84;;;8.27;100.00
42591;BME280;28218;53.342;-6.216;2023-04-07T04:16:16;102038.19;;;8.26;100.00
42591;BME280;28218;53.342;-6.216;2023-04-07T04:18:45;102037.22;;;8.27;100.00
42591;BME280;28218;53.342;-6.216;2023-04-07T04:21:14;102031.97;;;8.27;100.00
42591;BME280;28218;53.342;-6.216;2023-04-07T04:23:42;102031.97;;;8.27;100.00
42591;BME280;28218;53.342;-6.216;2023-04-07T04:26:10;102031.97;;;8.27;100.00
42591;BME280;28218;53.342;-6.216;2023-04-07T04:28:38;102039.75;;;8.28;100.00
42591;BME280;28218;53.342;-6.216;2023-04-07T04:31:06;102038.19;;;8.26;100.00
42591;BME280;28218;53.342;-6.216;2023-04-07T04:33:34;102037.22;;;8.27;100.00
42591;BME280;28218;53.342;-6.216;2023-04-07T04:36:05;102027.81;;;8.24;100.00
42591;BME280;28218;53.342;-6.216;2023-04-07T04:38:33;102031.97;;;8.27;100.00
42591;BME280;28218;53.342;-6.216;2023-04-07T04:41:01;102027.06;;;8.22;100.00
42591;BME280;28218;53.342;-6.216;2023-04-07T04:43:29;102037.56;;;8.22;100.00
42591;BME280;28218;53.342;-6.216;2023-04-07T04:45:57;102028.16;;;8.19;100.00
42591;BME280;28218;53.342;-6.216;2023-04-07T04:48:26;102033.16;;;8.23;100.00
42591;BME280;28218;53.342;-6.216;2023-04-07T04:50:54;102033.66;;;8.16;100.00
42591;BME280;28218;53.342;-6.216;2023-04-07T04:53:23;102035.81;;;8.11;100.00
42591;BME280;28218;53.342;-6.216;2023-04-07T04:55:52;102038.66;;;8.08;100.00
42591;BME280;28218;53.342;-6.216;2023-04-07T04:58:20;102042.47;;;8.04;100.00
42591;BME280;28218;53.342;-6.216;2023-04-07T05:00:48;102038.91;;;8.05;100.00
42591;BME280;28218;53.342;-6.216;2023-04-07T05:03:17;102036.88;;;8.09;100.00
42591;BME280;28218;53.342;-6.216;2023-04-07T05:05:46;102033.66;;;8.05;100.00
42591;BME280;28218;53.342;-6.216;2023-04-07T05:08:14;102036.03;;;8.08;100.00
42591;BME280;28218;53.342;-6.216;2023-04-07T05:10:45;102029.94;;;8.08;100.00
42591;BME280;28218;53.342;-6.216;2023-04-07T05:13:13;102039.63;;;8.07;100.00
42591;BME280;28218;53.342;-6.216;2023-04-07T05:15:42;102034.50;;;8.06;100.00
42591;BME280;28218;53.342;-6.216;2023-04-07T05:18:10;102031.88;;;8.06;100.00
42591;BME280;28218;53.342;-6.216;2023-04-07T05:20:38;102036.88;;;8.09;100.00
42591;BME280;28218;53.342;-6.216;2023-04-07T05:23:07;102042.84;;;8.11;100.00
42591;BME280;28218;53.342;-6.216;2023-04-07T05:25:35;102041.88;;;8.12;100.00
42591;BME280;28218;53.342;-6.216;2023-04-07T05:28:05;102040.34;;;8.09;100.00
42591;BME280;28218;53.342;-6.216;2023-04-07T05:30:33;102048.31;;;8.08;100.00
42591;BME280;28218;53.342;-6.216;2023-04-07T05:33:01;102045.00;;;8.06;100.00
42591;BME280;28218;53.342;-6.216;2023-04-07T05:35:29;102039.84;;;8.04;100.00
42591;BME280;28218;53.342;-6.216;2023-04-07T05:37:58;102049.16;;;8.08;100.00
42591;BME280;28218;53.342;-6.216;2023-04-07T05:40:27;102050.00;;;8.09;100.00
42591;BME280;28218;53.342;-6.216;2023-04-07T05:42:55;102050.84;;;8.09;100.00
42591;BME280;28218;53.342;-6.216;2023-04-07T05:45:25;102045.47;;;8.11;100.00
42591;BME280;28218;53.342;-6.216;2023-04-07T05:47:53;102047.88;;;8.14;100.00
42591;BME280;28218;53.342;-6.216;2023-04-07T05:50:22;102053.94;;;8.14;100.00
42591;BME280;28218;53.342;-6.216;2023-04-07T05:52:50;102051.19;;;8.16;100.00
42591;BME280;28218;53.342;-6.216;2023-04-07T05:55:18;102043.31;;;8.16;100.00
42591;BME280;28218;53.342;-6.216;2023-04-07T05:57:47;102052.03;;;8.16;100.00
42591;BME280;28218;53.342;-6.216;2023-04-07T06:00:16;102044.84;;;8.18;100.00
42591;BME280;28218;53.342;-6.216;2023-04-07T06:02:46;102048.22;;;8.20;100.00
42591;BME280;28218;53.342;-6.216;2023-04-07T06:05:15;102047.03;;;8.25;100.00
42591;BME280;28218;53.342;-6.216;2023-04-07T06:07:43;102047.84;;;8.25;100.00
42591;BME280;28218;53.342;-6.216;2023-04-07T06:10:11;102053.56;;;8.30;100.00
42591;BME280;28218;53.342;-6.216;2023-04-07T06:12:39;102051.56;;;8.34;100.00
42591;BME280;28218;53.342;-6.216;2023-04-07T06:15:08;102058.28;;;8.38;100.00
42591;BME280;28218;53.342;-6.216;2023-04-07T06:17:36;102051.69;;;8.43;100.00
42591;BME280;28218;53.342;-6.216;2023-04-07T06:20:07;102047.72;;;8.49;100.00
42591;BME280;28218;53.342;-6.216;2023-04-07T06:22:35;102049.28;;;8.52;100.00
42591;BME280;28218;53.342;-6.216;2023-04-07T06:25:04;102056.09;;;8.54;100.00
42591;BME280;28218;53.342;-6.216;2023-04-07T06:27:32;102054.75;;;8.60;100.00
42591;BME280;28218;53.342;-6.216;2023-04-07T06:30:01;102053.56;;;8.64;100.00
42591;BME280;28218;53.342;-6.216;2023-04-07T06:32:29;102046.97;;;8.69;100.00
42591;BME280;28218;53.342;-6.216;2023-04-07T06:34:57;102057.00;;;8.76;100.00
42591;BME280;28218;53.342;-6.216;2023-04-07T06:37:27;102051.38;;;8.80;100.00
42591;BME280;28218;53.342;-6.216;2023-04-07T06:39:55;102052.78;;;8.84;100.00
42591;BME280;28218;53.342;-6.216;2023-04-07T06:42:23;102051.00;;;8.85;100.00
42591;BME280;28218;53.342;-6.216;2023-04-07T06:44:52;102049.91;;;8.87;100.00
42591;BME280;28218;53.342;-6.216;2023-04-07T06:47:20;102056.00;;;8.88;100.00
42591;BME280;28218;53.342;-6.216;2023-04-07T06:49:48;102063.88;;;8.88;100.00
42591;BME280;28218;53.342;-6.216;2023-04-07T06:52:16;102052.41;;;8.89;100.00
42591;BME280;28218;53.342;-6.216;2023-04-07T06:54:46;102056.00;;;8.88;100.00
42591;BME280;28218;53.342;-6.216;2023-04-07T06:57:14;102054.69;;;8.82;100.00
42591;BME280;28218;53.342;-6.216;2023-04-07T06:59:43;102054.69;;;8.82;100.00
42591;BME280;28218;53.342;-6.216;2023-04-07T07:02:11;102062.34;;;8.85;100.00
42591;BME280;28218;53.342;-6.216;2023-04-07T07:04:39;102054.19;;;8.88;100.00
42591;BME280;28218;53.342;-6.216;2023-04-07T07:07:08;102047.88;;;8.91;100.00
42591;BME280;28218;53.342;-6.216;2023-04-07T07:09:36;102051.78;;;8.96;100.00
42591;BME280;28218;53.342;-6.216;2023-04-07T07:12:05;102064.25;;;8.94;100.00
42591;BME280;28218;53.342;-6.216;2023-04-07T07:14:34;102061.59;;;8.94;100.00
42591;BME280;28218;53.342;-6.216;2023-04-07T07:17:02;102060.78;;;8.94;100.00
42591;BME280;28218;53.342;-6.216;2023-04-07T07:19:30;102067.56;;;8.96;100.00
42591;BME280;28218;53.342;-6.216;2023-04-07T07:21:59;102067.19;;;9.01;100.00
42591;BME280;28218;53.342;-6.216;2023-04-07T07:24:29;102066.13;;;9.04;100.00
42591;BME280;28218;53.342;-6.216;2023-04-07T07:26:59;102065.47;;;9.11;100.00
42591;BME280;28218;53.342;-6.216;2023-04-07T07:29:31;102064.13;;;9.17;100.00
42591;BME280;28218;53.342;-6.216;2023-04-07T07:32:00;102069.16;;;9.20;100.00
42591;BME280;28218;53.342;-6.216;2023-04-07T07:34:28;102065.16;;;9.26;100.00
42591;BME280;28218;53.342;-6.216;2023-04-07T07:36:57;102061.19;;;9.31;100.00
42591;BME280;28218;53.342;-6.216;2023-04-07T07:39:25;102055.31;;;9.39;100.00
42591;BME280;28218;53.342;-6.216;2023-04-07T07:41:54;102059.88;;;9.37;100.00
42591;BME280;28218;53.342;-6.216;2023-04-07T07:44:23;102060.63;;;9.48;100.00
42591;BME280;28218;53.342;-6.216;2023-04-07T07:46:52;102070.41;;;9.58;100.00
42591;BME280;28218;53.342;-6.216;2023-04-07T07:49:21;102061.88;;;9.65;100.00
42591;BME280;28218;53.342;-6.216;2023-04-07T07:51:49;102058.84;;;9.70;100.00
42591;BME280;28218;53.342;-6.216;2023-04-07T07:54:17;102063.19;;;9.81;100.00
42591;BME280;28218;53.342;-6.216;2023-04-07T07:56:45;102056.19;;;9.91;100.00
42591;BME280;28218;53.342;-6.216;2023-04-07T07:59:14;102056.22;;;10.01;100.00
42591;BME280;28218;53.342;-6.216;2023-04-07T08:01:43;102063.06;;;10.13;100.00
42591;BME280;28218;53.342;-6.216;2023-04-07T08:04:13;102054.78;;;10.17;100.00
42591;BME280;28218;53.342;-6.216;2023-04-07T08:06:41;102050.25;;;10.29;100.00
42591;BME280;28218;53.342;-6.216;2023-04-07T08:09:09;102047.81;;;10.47;100.00
42591;BME280;28218;53.342;-6.216;2023-04-07T08:11:37;102049.25;;;10.61;100.00
42591;BME280;28218;53.342;-6.216;2023-04-07T08:14:06;102044.25;;;10.67;100.00
42591;BME280;28218;53.342;-6.216;2023-04-07T08:16:35;102036.75;;;10.72;100.00
42591;BME280;28218;53.342;-6.216;2023-04-07T08:19:03;102040.09;;;10.74;100.00
42591;BME280;28218;53.342;-6.216;2023-04-07T08:21:33;102035.66;;;10.75;100.00
42591;BME280;28218;53.342;-6.216;2023-04-07T08:24:01;102034.69;;;10.76;100.00
42591;BME280;28218;53.342;-6.216;2023-04-07T08:26:30;102037.63;;;10.83;100.00
42591;BME280;28218;53.342;-6.216;2023-04-07T08:28:58;102039.00;;;10.87;100.00
42591;BME280;28218;53.342;-6.216;2023-04-07T08:31:26;102028.47;;;10.96;100.00
42591;BME280;28218;53.342;-6.216;2023-04-07T08:33:55;102035.41;;;11.07;100.00
42591;BME280;28218;53.342;-6.216;2023-04-07T08:36:24;102024.56;;;11.10;100.00
42591;BME280;28218;53.342;-6.216;2023-04-07T08:38:55;102025.13;;;11.23;100.00
42591;BME280;28218;53.342;-6.216;2023-04-07T08:41:30;102033.75;;;11.25;100.00
42591;BME280;28218;53.342;-6.216;2023-04-07T08:44:00;102029.00;;;11.29;100.00
42591;BME280;28218;53.342;-6.216;2023-04-07T08:46:29;102021.78;;;11.31;100.00
42591;BME280;28218;53.342;-6.216;2023-04-07T08:48:58;102030.78;;;11.38;100.00
42591;BME280;28218;53.342;-6.216;2023-04-07T08:51:28;102018.94;;;11.52;100.00
42591;BME280;28218;53.342;-6.216;2023-04-07T08:54:04;102011.16;;;11.60;100.00
42591;BME280;28218;53.342;-6.216;2023-04-07T08:56:35;102014.16;;;11.75;100.00
42591;BME280;28218;53.342;-6.216;2023-04-07T08:59:08;102011.41;;;11.86;100.00
42591;BME280;28218;53.342;-6.216;2023-04-07T09:01:38;102008.16;;;11.92;100.00
42591;BME280;28218;53.342;-6.216;2023-04-07T09:04:08;102006.03;;;12.06;100.00
42591;BME280;28218;53.342;-6.216;2023-04-07T09:06:37;102006.09;;;12.23;100.00
42591;BME280;28218;53.342;-6.216;2023-04-07T09:09:07;102011.59;;;12.30;100.00
42591;BME280;28218;53.342;-6.216;2023-04-07T09:11:37;102010.63;;;12.31;100.00
42591;BME280;28218;53.342;-6.216;2023-04-07T09:14:06;102013.41;;;12.30;100.00
42591;BME280;28218;53.342;-6.216;2023-04-07T09:16:34;102015.50;;;12.26;100.00
42591;BME280;28218;53.342;-6.216;2023-04-07T09:19:02;102016.22;;;12.28;100.00
42591;BME280;28218;53.342;-6.216;2023-04-07T09:21:46;102020.06;;;12.34;100.00
42591;BME280;28218;53.342;-6.216;2023-04-07T09:24:28;102010.00;;;12.37;100.00
42591;BME280;28218;53.342;-6.216;2023-04-07T09:27:11;102012.38;;;12.40;100.00
42591;BME280;28218;53.342;-6.216;2023-04-07T09:29:45;102016.47;;;12.52;100.00
42591;BME280;28218;53.342;-6.216;2023-04-07T09:32:33;102026.72;;;12.56;100.00
42591;BME280;28218;53.342;-6.216;2023-04-07T09:35:02;102031.34;;;12.53;100.00
42591;BME280;28218;53.342;-6.216;2023-04-07T09:37:30;102030.19;;;12.56;100.00
42591;BME280;28218;53.342;-6.216;2023-04-07T09:40:00;102021.00;;;12.60;100.00
42591;BME280;28218;53.342;-6.216;2023-04-07T09:42:29;102026.91;;;12.72;100.00
42591;BME280;28218;53.342;-6.216;2023-04-07T09:44:59;102028.94;;;12.78;100.00
42591;BME280;28218;53.342;-6.216;2023-04-07T09:47:28;102034.84;;;12.72;100.00
42591;BME280;28218;53.342;-6.216;2023-04-07T09:49:56;102029.53;;;12.54;100.00
42591;BME280;28218;53.342;-6.216;2023-04-07T09:52:48;102030.59;;;12.43;100.00
42591;BME280;28218;53.342;-6.216;2023-04-07T09:55:20;102034.66;;;12.56;100.00
42591;BME280;28218;53.342;-6.216;2023-04-07T09:57:49;102031.91;;;12.57;100.00
42591;BME280;28218;53.342;-6.216;2023-04-07T10:00:18;102030.16;;;12.66;100.00
42591;BME280;28218;53.342;-6.216;2023-04-07T10:02:46;102033.69;;;12.74;100.00
42591;BME280;28218;53.342;-6.216;2023-04-07T10:05:17;102032.81;;;12.84;100.00
42591;BME280;28218;53.342;-6.216;2023-04-07T10:07:47;102035.59;;;12.82;100.00
42591;BME280;28218;53.342;-6.216;2023-04-07T10:10:15;102032.22;;;12.90;100.00
42591;BME280;28218;53.342;-6.216;2023-04-07T10:12:46;102029.50;;;12.99;100.00
42591;BME280;28218;53.342;-6.216;2023-04-07T10:15:16;102032.44;;;13.14;100.00
42591;BME280;28218;53.342;-6.216;2023-04-07T10:17:45;102040.91;;;13.18;100.00
42591;BME280;28218;53.342;-6.216;2023-04-07T10:20:16;102028.91;;;13.23;100.00
42591;BME280;28218;53.342;-6.216;2023-04-07T10:22:47;102045.59;;;13.24;100.00
42591;BME280;28218;53.342;-6.216;2023-04-07T10:25:19;102046.13;;;13.27;100.00
42591;BME280;28218;53.342;-6.216;2023-04-07T10:27:52;102036.91;;;13.32;100.00
42591;BME280;28218;53.342;-6.216;2023-04-07T10:30:23;102041.88;;;13.35;100.00
42591;BME280;28218;53.342;-6.216;2023-04-07T10:32:53;102043.22;;;13.39;100.00
42591;BME280;28218;53.342;-6.216;2023-04-07T10:35:22;102035.13;;;13.40;100.00
42591;BME280;28218;53.342;-6.216;2023-04-07T10:38:12;102039.50;;;13.49;100.00
42591;BME280;28218;53.342;-6.216;2023-04-07T10:40:42;102037.06;;;13.56;100.00
42591;BME280;28218;53.342;-6.216;2023-04-07T10:43:12;102036.28;;;13.64;100.00
42591;BME280;28218;53.342;-6.216;2023-04-07T10:45:52;102036.03;;;13.75;100.00
42591;BME280;28218;53.342;-6.216;2023-04-07T10:48:22;102033.91;;;13.78;100.00
42591;BME280;28218;53.342;-6.216;2023-04-07T10:51:18;102041.34;;;13.75;100.00
42591;BME280;28218;53.342;-6.216;2023-04-07T10:54:19;102041.75;;;13.62;100.00
42591;BME280;28218;53.342;-6.216;2023-04-07T10:57:08;102037.09;;;13.64;100.00
42591;BME280;28218;53.342;-6.216;2023-04-07T10:59:40;102028.03;;;13.67;100.00
42591;BME280;28218;53.342;-6.216;2023-04-07T11:02:32;102029.31;;;13.63;100.00
42591;BME280;28218;53.342;-6.216;2023-04-07T11:05:01;102020.09;;;13.67;100.00
42591;BME280;28218;53.342;-6.216;2023-04-07T11:07:46;102013.72;;;13.60;100.00
42591;BME280;28218;53.342;-6.216;2023-04-07T11:10:16;102023.31;;;13.78;100.00
42591;BME280;28218;53.342;-6.216;2023-04-07T11:12:59;102017.25;;;13.94;100.00
42591;BME280;28218;53.342;-6.216;2023-04-07T11:15:29;102028.72;;;14.03;100.00
42591;BME280;28218;53.342;-6.216;2023-04-07T11:18:14;102027.59;;;14.14;100.00
42591;BME280;28218;53.342;-6.216;2023-04-07T11:20:48;102019.81;;;14.12;100.00
42591;BME280;28218;53.342;-6.216;2023-04-07T11:23:19;102023.81;;;14.16;100.00
42591;BME280;28218;53.342;-6.216;2023-04-07T11:25:50;102025.34;;;14.27;100.00
42591;BME280;28218;53.342;-6.216;2023-04-07T11:28:18;102015.88;;;14.24;100.00
42591;BME280;28218;53.342;-6.216;2023-04-07T11:30:50;102021.03;;;14.34;100.00
42591;BME280;28218;53.342;-6.216;2023-04-07T11:33:20;102018.25;;;14.44;100.00
42591;BME280;28218;53.342;-6.216;2023-04-07T11:35:51;102015.97;;;14.49;100.00
42591;BME280;28218;53.342;-6.216;2023-04-07T11:38:23;102015.16;;;14.48;100.00
42591;BME280;28218;53.342;-6.216;2023-04-07T11:40:52;102022.47;;;14.54;100.00
42591;BME280;28218;53.342;-6.216;2023-04-07T11:43:22;102020.13;;;14.51;100.00
42591;BME280;28218;53.342;-6.216;2023-04-07T11:46:07;102022.13;;;14.49;100.00
42591;BME280;28218;53.342;-6.216;2023-04-07T11:48:39;102021.16;;;14.59;100.00
42591;BME280;28218;53.342;-6.216;2023-04-07T11:51:15;102027.16;;;14.69;100.00
42591;BME280;28218;53.342;-6.216;2023-04-07T11:53:44;102021.97;;;14.67;100.00
42591;BME280;28218;53.342;-6.216;2023-04-07T11:56:15;102027.16;;;14.69;100.00
42591;BME280;28218;53.342;-6.216;2023-04-07T11:58:48;102022.19;;;14.82;100.00
42591;BME280;28218;53.342;-6.216;2023-04-07T12:01:18;102028.50;;;14.89;100.00
42591;BME280;28218;53.342;-6.216;2023-04-07T12:03:57;102028.81;;;14.78;100.00
42591;BME280;28218;53.342;-6.216;2023-04-07T12:06:28;102018.19;;;14.86;100.00
42591;BME280;28218;53.342;-6.216;2023-04-07T12:09:01;102030.44;;;14.71;100.00
42591;BME280;28218;53.342;-6.216;2023-04-07T12:11:30;102030.78;;;14.76;100.00
42591;BME280;28218;53.342;-6.216;2023-04-07T12:13:59;102034.25;;;14.76;100.00
42591;BME280;28218;53.342;-6.216;2023-04-07T12:16:36;102031.97;;;14.90;100.00
42591;BME280;28218;53.342;-6.216;2023-04-07T12:19:05;102032.97;;;14.89;100.00
42591;BME280;28218;53.342;-6.216;2023-04-07T12:21:33;102030.00;;;14.92;100.00
42591;BME280;28218;53.342;-6.216;2023-04-07T12:24:01;102036.94;;;14.68;100.00
42591;BME280;28218;53.342;-6.216;2023-04-07T12:26:29;102033.06;;;14.63;100.00
42591;BME280;28218;53.342;-6.216;2023-04-07T12:28:58;102025.81;;;14.73;100.00
42591;BME280;28218;53.342;-6.216;2023-04-07T12:31:32;102033.13;;;14.79;100.00
42591;BME280;28218;53.342;-6.216;2023-04-07T12:34:01;102022.84;;;14.92;100.00
42591;BME280;28218;53.342;-6.216;2023-04-07T12:36:29;102017.88;;;14.97;100.00
42591;BME280;28218;53.342;-6.216;2023-04-07T12:38:59;102033.47;;;15.08;100.00
42591;BME280;28218;53.342;-6.216;2023-04-07T12:41:27;102021.84;;;15.09;100.00
42591;BME280;28218;53.342;-6.216;2023-04-07T12:43:55;102021.38;;;15.06;100.00
42591;BME280;28218;53.342;-6.216;2023-04-07T12:46:23;102020.03;;;15.10;100.00
42591;BME280;28218;53.342;-6.216;2023-04-07T12:48:54;102029.16;;;15.16;100.00
42591;BME280;28218;53.342;-6.216;2023-04-07T12:51:22;102024.69;;;15.08;100.00